Latest Weather Observations for Oenpelli Airport

IDD60801

Issued at 10:31 am CST Wednesday 25 May 2016 (issued every 30 minutes, with the page automatically refreshed every 10 minutes)

About weather observations | Map of weather stations | Latest weather observations for NT | Other Formats
Station Details ID: 014310 Name: OENPELLI AIRPORT Lat: -12.33 Lon: 133.01 Height: 7.5 m
Data from the previous 72 hours. | See also: Recent months at Oenpelli Airport
Date/Time
CST
Temp
°C
App
Temp
°C
Dew
Point
Rel
Hum
%
Delta-T
°C
Wind Press
QNH
hPa
Press
MSL
hPa
Rain
since 9 am
mm
Dir
 
Spd
km/h
Gust
km/h
Spd
kts
Gust
kts
25/10:30am 32.2 35.6 21.7 54 7.1 E 6 11 3 6 1013.2 1013.1 0.0
25/10:00am 31.2 34.7 21.9 57 6.3 ENE 6 13 3 7 1013.5 1013.4 0.0
25/09:30am 30.3 34.3 22.7 64 5.2 ENE 6 9 3 5 1013.7 1013.6 0.0
25/09:00am 29.9 34.4 23.6 69 4.3 E 6 9 3 5 1013.6 1013.5 0.0
25/08:30am 28.4 34.2 24.0 77 3.0 CALM 0 0 0 0 1013.4 1013.3 0.0
25/08:00am 25.9 31.3 23.2 85 1.8 CALM 0 0 0 0 1013.1 1013.0 0.0
25/07:30am 24.7 29.9 22.9 90 1.2 CALM 0 0 0 0 1013.0 1012.9 0.0
25/07:00am 23.4 27.9 21.5 89 1.3 CALM 0 0 0 0 1012.8 1012.7 0.0
25/06:30am 23.7 28.2 21.6 88 1.4 CALM 0 0 0 0 1012.5 1012.4 0.0
25/06:00am 24.0 28.7 21.9 88 1.4 CALM 0 0 0 0 1012.4 1012.3 0.0
25/05:30am 24.0 28.7 21.9 88 1.4 CALM 0 0 0 0 1012.1 1012.0 0.0
25/05:00am 24.1 28.7 21.8 87 1.5 CALM 0 0 0 0 1011.8 1011.7 0.0
25/04:30am 24.5 29.0 21.6 84 1.9 CALM 0 0 0 0 1011.8 1011.7 0.0
25/04:00am 24.5 29.0 21.6 84 1.9 CALM 0 0 0 0 1011.7 1011.6 0.0
25/03:30am 25.0 29.6 21.7 82 2.2 CALM 0 0 0 0 1012.0 1011.9 0.0
25/03:00am 25.5 30.0 22.2 82 2.2 SE 2 4 1 2 1012.1 1012.0 0.0
25/02:30am 25.8 30.1 21.9 79 2.6 ESE 2 6 1 3 1012.2 1012.1 0.0
25/02:00am 25.7 30.3 21.8 79 2.6 CALM 0 0 0 0 1012.3 1012.2 0.0
25/01:30am 25.9 30.2 22.0 79 2.6 E 2 4 1 2 1012.5 1012.4 0.0
25/01:00am 26.3 30.4 22.2 78 2.8 ENE 4 6 2 3 1012.7 1012.6 0.0
25/12:30am 26.3 31.1 22.2 78 2.8 CALM 0 0 0 0 1012.8 1012.7 0.0
25/12:00am 26.4 30.9 22.3 78 2.8 ENE 2 4 1 2 1013.0 1012.9 0.0
 
Date/Time
CST
Temp
°C
App
Temp
°C
Dew
Point
Rel
Hum
%
Delta-T
°C
Wind Press
QNH
hPa
Press
MSL
hPa
Rain
since 9 am
mm
Dir
 
Spd
km/h
Gust
km/h
Spd
kts
Gust
kts
24/11:30pm 26.5 30.5 22.1 77 3.0 NE 4 6 2 3 1012.9 1012.8 0.0
24/11:00pm 26.8 30.9 22.2 76 3.1 NE 4 6 2 3 1012.9 1012.8 0.0
24/10:30pm 26.8 30.9 22.2 76 3.1 ENE 4 6 2 3 1012.8 1012.7 0.0
24/10:00pm 26.9 30.6 22.3 76 3.1 NE 6 7 3 4 1012.9 1012.8 0.0
24/09:30pm 27.0 30.4 22.0 74 3.4 NE 7 9 4 5 1012.6 1012.5 0.0
24/09:00pm 27.8 31.1 21.8 70 4.0 NNE 7 11 4 6 1012.2 1012.1 0.0
24/08:30pm 28.5 31.6 20.2 60 5.5 WSW 4 13 2 7 1011.8 1011.7 0.0
24/08:00pm 28.5 31.2 20.2 60 5.5 SW 6 6 3 3 1011.1 1011.0 0.0
24/07:30pm 28.8 31.8 20.0 59 5.8 SW 4 6 2 3 1010.8 1010.7 0.0
24/07:00pm 29.7 33.2 20.3 57 6.2 WSW 2 2 1 1 1010.4 1010.3 0.0
24/06:30pm 31.6 34.2 19.2 47 8.1 W 4 7 2 4 1010.1 1010.0 0.0
24/06:00pm 33.2 35.3 18.9 42 9.4 WSW 6 9 3 5 1009.8 1009.7 0.0
24/05:30pm 34.3 35.9 17.9 37 10.6 SW 6 7 3 4 1009.6 1009.5 0.0
24/05:00pm 34.5 36.0 17.7 37 10.8 SSW 6 9 3 5 1009.3 1009.2 0.0
24/04:30pm 34.9 36.2 17.6 35 11.2 WSW 7 13 4 7 1009.2 1009.1 0.0
24/04:00pm 34.8 36.1 18.4 38 10.7 SW 9 13 5 7 1009.2 1009.1 0.0
24/03:30pm 34.6 36.9 18.6 38 10.5 WSW 4 11 2 6 1009.5 1009.4 0.0
24/03:00pm 34.8 37.0 18.4 38 10.7 S 4 11 2 6 1009.8 1009.7 0.0
24/02:30pm 34.4 35.5 18.0 37 10.6 WSW 9 15 5 8 1010.0 1009.9 0.0
24/02:00pm 34.1 35.3 18.2 39 10.3 SSW 9 17 5 9 1010.5 1010.4 0.0
24/01:30pm 34.5 36.2 19.3 40 10.0 SW 9 13 5 7 1011.1 1011.0 0.0
24/01:00pm 33.0 35.0 19.1 43 9.1 SSW 7 13 4 7 1011.8 1011.7 0.0
24/12:30pm 32.8 35.2 19.7 46 8.7 SSW 6 9 3 5 1012.4 1012.3 0.0
24/12:00pm 33.2 36.0 20.4 47 8.5 N 6 13 3 7 1012.8 1012.7 0.0
24/11:30am 31.7 34.8 20.3 50 7.6 E 4 11 2 6 1013.3 1013.2 0.0
24/11:00am 30.9 33.9 20.8 55 6.7 NNE 6 9 3 5 1013.6 1013.5 0.0
24/10:30am 30.4 33.8 20.9 57 6.3 NNE 4 11 2 6 1013.8 1013.7 0.0
24/10:00am 29.6 32.5 21.0 60 5.7 NE 7 11 4 6 1014.0 1013.9 0.0
24/09:30am 30.2 33.4 21.6 60 5.8 ENE 7 11 4 6 1014.1 1014.0 0.0
24/09:00am 29.3 32.9 22.3 66 4.7 NE 7 11 4 6 1014.0 1013.9 0.0
24/08:30am 28.4 34.1 23.8 76 3.2 CALM 0 2 0 1 1013.8 1013.7 0.0
24/08:00am 25.8 31.4 23.5 87 1.6 CALM 0 0 0 0 1013.4 1013.3 0.0
24/07:30am 24.4 29.6 22.8 91 1.1 CALM 0 0 0 0 1013.0 1012.9 0.0
24/07:00am 23.9 28.7 22.2 90 1.1 CALM 0 0 0 0 1012.8 1012.7 0.0
24/06:30am 24.4 29.5 22.7 90 1.1 CALM 0 0 0 0 1012.4 1012.3 0.0
24/06:00am 24.6 29.3 22.7 89 1.3 SW 2 6 1 3 1012.1 1012.0 0.0
24/05:30am 25.1 29.4 23.3 90 1.2 SW 6 7 3 4 1011.7 1011.6 0.0
24/05:00am 25.1 29.2 23.0 88 1.4 SW 6 9 3 5 1011.6 1011.5 0.0
24/04:30am 24.7 28.5 22.4 87 1.5 WNW 6 7 3 4 1011.3 1011.2 0.0
24/04:00am 24.5 29.0 21.6 84 1.9 CALM 0 2 0 1 1011.1 1011.0 0.0
24/03:30am 25.1 29.6 21.6 81 2.3 CALM 0 2 0 1 1011.3 1011.2 0.0
24/03:00am 25.7 30.3 21.8 79 2.6 CALM 0 0 0 0 1011.8 1011.7 0.0
24/02:30am 26.7 30.9 22.5 78 2.8 WNW 4 4 2 2 1012.1 1012.0 0.0
24/02:00am 26.0 31.1 22.7 82 2.2 CALM 0 0 0 0 1012.5 1012.4 0.0
24/01:30am 26.6 31.8 22.9 80 2.5 CALM 0 2 0 1 1012.8 1012.7 0.0
24/01:00am 26.6 31.1 22.9 80 2.5 WNW 4 4 2 2 1012.8 1012.7 0.0
24/12:30am 26.5 30.9 22.8 80 2.5 WNW 4 4 2 2 1012.9 1012.8 0.0
24/12:00am 26.8 31.4 23.1 80 2.5 WNW 4 6 2 3 1012.9 1012.8 0.0
 
Date/Time
CST
Temp
°C
App
Temp
°C
Dew
Point
Rel
Hum
%
Delta-T
°C
Wind Press
QNH
hPa
Press
MSL
hPa
Rain
since 9 am
mm
Dir
 
Spd
km/h
Gust
km/h
Spd
kts
Gust
kts
23/11:30pm 26.9 31.4 22.9 79 2.7 WNW 4 6 2 3 1012.7 1012.6 0.0
23/11:00pm 27.0 31.5 23.0 79 2.7 WNW 4 6 2 3 1012.7 1012.6 0.0
23/10:30pm 27.2 31.2 22.8 77 3.0 WNW 6 7 3 4 1012.6 1012.5 0.0
23/10:00pm 27.7 31.6 22.6 74 3.5 WNW 6 9 3 5 1012.5 1012.4 0.0
23/09:30pm 28.1 32.0 22.6 72 3.7 WNW 6 7 3 4 1012.5 1012.4 0.0
23/09:00pm 28.4 32.7 22.6 71 3.9 WNW 4 6 2 3 1012.2 1012.1 0.0
23/08:30pm 28.8 33.2 22.8 70 4.1 WNW 4 6 2 3 1011.7 1011.6 0.0
23/08:00pm 28.5 32.5 22.7 71 3.9 WNW 6 7 3 4 1011.2 1011.1 0.0
23/07:30pm 28.8 32.5 22.3 68 4.4 NNW 6 11 3 6 1010.8 1010.7 0.0
23/07:00pm 29.9 33.8 22.6 65 5.0 N 6 9 3 5 1010.2 1010.1 0.0
23/06:30pm 30.7 33.5 22.3 61 5.7 N 11 19 6 10 1009.7 1009.6 0.0
23/06:00pm 31.8 34.0 21.9 55 6.7 N 13 19 7 10 1009.2 1009.1 0.0
23/05:30pm 35.5 36.5 16.3 32 12.2 NE 6 9 3 5 1008.6 1008.5 0.0
23/05:00pm 35.8 37.0 16.0 30 12.5 SSE 4 9 2 5 1008.3 1008.2 0.0
23/04:30pm 36.0 36.7 15.7 30 12.8 S 6 11 3 6 1008.1 1008.0 0.0
23/04:00pm 35.7 36.7 16.9 32 12.0 SSW 7 15 4 8 1008.0 1007.9 0.0
23/03:30pm 35.5 36.1 16.8 33 12.0 SSW 9 17 5 9 1008.2 1008.1 0.0
23/03:00pm 35.9 36.8 17.6 34 11.9 SSW 9 17 5 9 1008.6 1008.5 0.0
23/02:30pm 35.4 36.9 18.0 35 11.3 S 7 13 4 7 1009.0 1008.9 0.0
23/02:00pm 35.4 36.1 18.0 35 11.3 S 11 17 6 9 1009.4 1009.3 0.0
23/01:30pm 35.4 36.9 17.6 35 11.5 SSE 6 17 3 9 1010.1 1010.0 0.0
23/01:00pm 34.9 36.8 18.5 38 10.7 SE 6 13 3 7 1010.9 1010.8 0.0
23/12:30pm 34.8 36.4 19.2 39 10.3 SSE 9 17 5 9 1011.5 1011.4 0.0
23/12:00pm 33.5 35.8 19.9 44 9.0 ESE 7 15 4 8 1012.0 1011.9 0.0
23/11:30am 33.1 36.0 20.6 47 8.4 SSE 6 11 3 6 1012.5 1012.4 0.0
23/11:00am 32.1 34.4 20.7 51 7.6 SE 9 17 5 9 1013.1 1013.0 0.0
23/10:30am 31.4 34.3 21.0 54 7.0 SE 7 15 4 8 1013.4 1013.3 0.0
23/10:00am 30.3 33.4 21.4 59 6.0 SE 7 11 4 6 1013.7 1013.6 0.0
23/09:30am 30.1 33.1 22.0 62 5.5 SE 9 17 5 9 1013.9 1013.8 0.0
23/09:00am 28.9 31.6 22.2 67 4.5 SSE 11 20 6 11 1013.9 1013.8 0.0
23/08:30am 28.3 31.5 22.3 70 4.1 SSE 9 15 5 8 1013.8 1013.7 0.0
23/08:00am 27.5 31.1 23.1 77 3.0 SSE 9 17 5 9 1013.6 1013.5 0.0
23/07:30am 25.6 30.9 23.7 89 1.3 S 2 6 1 3 1013.5 1013.4 0.0
23/07:00am 24.2 28.6 22.8 92 0.9 SSW 4 7 2 4 1013.2 1013.1 0.0
23/06:30am 24.7 29.9 22.8 89 1.3 CALM 0 0 0 0 1013.0 1012.9 0.0
23/06:00am 24.4 29.3 22.3 88 1.4 CALM 0 0 0 0 1012.6 1012.5 0.0
23/05:30am 24.6 29.1 22.3 87 1.5 WSW 2 4 1 2 1012.2 1012.1 0.0
23/05:00am 25.3 30.2 23.0 87 1.6 WSW 2 4 1 2 1011.8 1011.7 0.0
23/04:30am 25.6 30.9 23.1 86 1.7 CALM 0 4 0 2 1011.4 1011.3 0.0
23/04:00am 25.6 30.5 23.1 86 1.7 SW 2 4 1 2 1011.2 1011.1 0.0
23/03:30am 25.1 29.2 23.0 88 1.4 SW 6 9 3 5 1011.5 1011.4 0.0
23/03:00am 25.2 29.8 22.5 85 1.8 S 2 4 1 2 1011.7 1011.6 0.0
23/02:30am 25.8 30.9 22.7 83 2.1 CALM 0 0 0 0 1011.8 1011.7 0.0
23/02:00am 26.2 31.4 22.9 82 2.2 CALM 0 0 0 0 1012.0 1011.9 0.0
23/01:30am 26.7 32.0 23.0 80 2.5 CALM 0 0 0 0 1012.1 1012.0 0.0
23/01:00am 26.9 31.6 23.4 81 2.4 ENE 4 6 2 3 1012.2 1012.1 0.0
23/12:30am 26.3 31.1 22.8 81 2.4 ESE 2 4 1 2 1012.1 1012.0 0.0
23/12:00am 26.6 31.7 22.7 79 2.6 CALM 0 4 0 2 1012.2 1012.1 0.0
 
Date/Time
CST
Temp
°C
App
Temp
°C
Dew
Point
Rel
Hum
%
Delta-T
°C
Wind Press
QNH
hPa
Press
MSL
hPa
Rain
since 9 am
mm
Dir
 
Spd
km/h
Gust
km/h
Spd
kts
Gust
kts
22/11:30pm 26.8 31.4 23.1 80 2.5 E 4 4 2 2 1012.3 1012.2 0.0
22/11:00pm 27.1 31.8 22.7 77 3.0 NNW 2 4 1 2 1012.3 1012.2 0.0
22/10:30pm 27.5 32.2 22.7 75 3.3 NNW 2 4 1 2 1012.5 1012.4 0.0
22/10:00pm 27.6 31.7 22.3 73 3.6 NNE 4 4 2 2 1012.5 1012.4 0.0
22/09:30pm 28.1 31.8 22.3 70 3.9 NE 6 9 3 5 1012.5 1012.4 0.0
22/09:00pm 28.4 31.3 22.4 70 4.1 N 11 20 6 11 1012.4 1012.3 0.0
22/08:30pm 29.5 33.6 23.2 69 4.3 NNW 7 13 4 7 1011.9 1011.8 0.0
22/08:00pm 30.1 33.7 23.0 65 4.9 N 9 11 5 6 1011.3 1011.2 0.0
22/07:30pm 30.3 34.2 22.5 63 5.3 NW 6 9 3 5 1010.9 1010.8 0.0
22/07:00pm 31.6 35.2 21.2 54 7.0 NNW 4 6 2 3 1010.5 1010.4 0.0
22/06:30pm 32.6 35.8 19.8 46 8.5 NW 2 6 1 3 1010.3 1010.2 0.0
22/06:00pm 33.6 36.8 19.7 44 9.2 NNW 2 6 1 3 1010.1 1010.0 0.0
22/05:30pm 34.4 36.6 19.2 40 10.0 NNW 6 7 3 4 1009.8 1009.7 0.0
22/05:00pm 34.6 37.3 19.4 40 10.0 W 4 7 2 4 1009.8 1009.7 0.0
22/04:30pm 33.6 36.9 20.0 44 9.0 SW 2 6 1 3 1009.8 1009.7 0.0
22/04:00pm 33.6 36.6 20.0 44 9.0 SSE 4 6 2 3 1009.7 1009.6 0.0
22/03:30pm 34.3 37.0 19.5 41 9.8 SSW 4 9 2 5 1009.9 1009.8 0.0
22/03:00pm 33.9 36.1 19.2 42 9.7 SE 6 9 3 5 1010.0 1009.9 0.0
22/02:30pm 34.5 36.7 19.7 41 9.8 ESE 7 11 4 6 1010.3 1010.2 0.0
22/02:00pm 34.2 37.1 19.8 42 9.6 WSW 4 7 2 4 1011.1 1011.0 0.0
22/01:30pm 34.7 37.4 20.3 43 9.6 ENE 6 13 3 7 1011.5 1011.4 0.0
22/01:00pm 33.5 35.8 19.9 44 9.0 NE 7 15 4 8 1012.1 1012.0 0.0
22/12:30pm 33.0 35.5 20.2 47 8.5 ENE 7 13 4 7 1012.4 1012.3 0.0
22/12:00pm 33.0 35.4 20.9 49 8.1 ENE 9 15 5 8 1012.6 1012.5 0.0
22/11:30am 32.1 34.8 20.7 51 7.6 ENE 7 17 4 9 1013.2 1013.1 0.0
22/11:00am 31.5 32.9 20.4 51 7.4 E 13 17 7 9 1013.5 1013.4 0.0

Other Formats:

Comma delimited format used in spreadsheet applications
http://www.bom.gov.au/fwo/IDD60801/IDD60801.94110.axf

JavaScript Object Notation format (JSON) in row-major order
http://www.bom.gov.au/fwo/IDD60801/IDD60801.94110.json